createdAt,value
2023-03-31T00:10:10.390Z,74141.91
2023-03-31T00:20:23.193Z,74156.06
2023-03-31T00:30:28.110Z,74145.97
2023-03-31T00:40:32.727Z,74139.88
2023-03-31T00:50:41.554Z,74143.94
2023-03-31T01:00:48.352Z,74143.94
2023-03-31T01:10:57.064Z,74150.00
2023-03-31T01:21:47.605Z,74145.97
2023-03-31T01:31:52.188Z,74143.94
2023-03-31T01:42:13.894Z,74156.06
2023-03-31T01:52:24.537Z,74180.34
2023-03-31T02:02:38.024Z,74184.38
2023-03-31T02:12:44.820Z,74200.56
2023-03-31T02:22:55.115Z,74210.69
2023-03-31T02:32:58.348Z,74216.75
2023-03-31T02:43:06.339Z,74210.69
2023-03-31T02:53:37.793Z,74202.59
2023-03-31T03:03:46.343Z,74216.75
2023-03-31T03:13:54.368Z,74212.72
2023-03-31T03:24:00.028Z,74224.84
2023-03-31T03:34:02.308Z,74239.00
2023-03-31T03:44:05.146Z,74249.13
2023-03-31T03:54:10.054Z,74271.38
2023-03-31T04:04:17.246Z,74287.56
2023-03-31T04:14:19.708Z,74309.81
2023-03-31T04:24:22.500Z,74330.06
2023-03-31T04:34:35.594Z,74352.31
2023-03-31T04:44:40.536Z,74344.22
2023-03-31T04:54:42.869Z,74311.84
2023-03-31T05:04:46.953Z,74243.06
2023-03-31T05:14:49.151Z,74228.91
2023-03-31T05:24:53.978Z,74226.88
2023-03-31T05:34:57.643Z,74180.34
2023-03-31T05:45:02.769Z,74186.41
2023-03-31T05:55:11.942Z,74162.13
2023-03-31T06:05:14.347Z,74158.09
2023-03-31T06:15:21.306Z,74143.94
2023-03-31T06:25:43.849Z,74103.47
2023-03-31T06:36:00.172Z,74026.59
2023-03-31T06:46:04.957Z,74030.66
2023-03-31T06:56:11.171Z,74006.38
2023-03-31T07:06:19.653Z,73961.88
2023-03-31T07:16:25.547Z,73941.63
2023-03-31T07:26:33.366Z,73874.88
2023-03-31T07:36:40.571Z,73791.94
2023-03-31T07:46:48.192Z,73820.25
2023-03-31T07:56:50.917Z,73779.81
2023-03-31T08:07:04.343Z,73731.25
2023-03-31T08:17:09.051Z,73755.53
2023-03-31T08:27:15.770Z,73711.03
2023-03-31T08:37:18.238Z,73739.34
2023-03-31T08:47:23.469Z,73747.44
2023-03-31T08:57:31.898Z,73688.78
2023-03-31T09:07:41.895Z,73638.22
2023-03-31T09:17:52.107Z,73577.53
2023-03-31T09:27:57.260Z,73557.31
2023-03-31T09:38:03.552Z,73520.91
2023-03-31T09:48:21.241Z,73464.25
2023-03-31T09:58:25.394Z,73452.13
2023-03-31T10:08:45.075Z,73498.66
2023-03-31T10:18:54.593Z,73456.16
2023-03-31T10:28:58.902Z,73409.66
2023-03-31T10:39:07.990Z,73369.19
2023-03-31T10:49:23.554Z,73318.63
2023-03-31T10:59:30.196Z,73336.84
2023-03-31T11:09:53.123Z,73288.28
2023-03-31T11:20:44.096Z,73322.69
2023-03-31T11:31:11.000Z,73288.28
2023-03-31T11:41:23.094Z,73251.88
2023-03-31T11:51:28.947Z,73209.41
2023-03-31T12:01:41.642Z,73219.53
2023-03-31T12:11:53.929Z,73201.31
2023-03-31T12:22:14.069Z,73217.50
2023-03-31T12:32:24.490Z,73189.19
2023-03-31T12:42:52.652Z,73164.91
2023-03-31T12:53:23.094Z,73168.97
2023-03-31T13:03:43.952Z,73148.75
2023-03-31T13:14:12.203Z,73120.41
2023-03-31T13:24:24.197Z,73116.38
2023-03-31T13:34:42.022Z,73112.34
2023-03-31T13:45:22.220Z,73120.41
2023-03-31T13:55:46.962Z,73144.69
2023-03-31T14:06:19.995Z,73148.75
2023-03-31T14:16:22.269Z,73116.38
2023-03-31T14:26:54.631Z,73106.25
2023-03-31T14:37:01.363Z,73116.38
2023-03-31T14:47:16.130Z,73144.69
2023-03-31T14:57:30.238Z,73124.47
2023-03-31T15:07:45.171Z,73118.41
2023-03-31T15:17:52.371Z,73140.66
2023-03-31T15:28:03.508Z,73177.06
2023-03-31T15:38:06.604Z,73314.59
2023-03-31T15:48:38.378Z,73464.25
2023-03-31T15:58:59.656Z,73514.81
2023-03-31T16:09:09.316Z,73512.81
2023-03-31T16:19:21.341Z,73504.72
2023-03-31T16:29:26.228Z,73508.75
2023-03-31T16:39:31.298Z,73516.84
2023-03-31T16:49:39.165Z,73545.16
2023-03-31T16:59:53.541Z,73539.09
2023-03-31T17:09:56.593Z,73526.97
2023-03-31T17:20:00.143Z,73531.00
2023-03-31T17:30:02.561Z,73520.91
2023-03-31T17:40:07.625Z,73537.06
2023-03-31T17:50:11.528Z,73561.34
2023-03-31T18:00:17.580Z,73579.56
2023-03-31T18:10:23.020Z,73648.31
2023-03-31T18:20:28.981Z,73690.81
2023-03-31T18:30:31.911Z,73719.13
2023-03-31T18:40:37.376Z,73723.16
2023-03-31T18:50:40.191Z,73723.16
2023-03-31T19:00:47.322Z,73731.25
2023-03-31T19:11:15.773Z,73719.13
2023-03-31T19:21:21.740Z,73688.78
2023-03-31T19:31:27.053Z,73670.56
2023-03-31T19:41:29.461Z,73662.47
2023-03-31T19:51:32.640Z,73670.56
2023-03-31T20:01:37.885Z,73672.59
2023-03-31T20:11:43.770Z,73670.56
2023-03-31T20:21:58.235Z,73698.91
2023-03-31T20:32:06.138Z,73684.72
2023-03-31T20:42:13.176Z,73664.50
2023-03-31T20:52:28.370Z,73670.56
2023-03-31T21:02:34.526Z,73682.72
2023-03-31T21:12:38.293Z,73674.63
2023-03-31T21:22:42.955Z,73684.72
2023-03-31T21:32:54.136Z,73686.75
2023-03-31T21:42:59.073Z,73688.78
2023-03-31T21:53:03.398Z,73696.88
2023-03-31T22:03:25.695Z,73719.13
2023-03-31T22:13:28.875Z,73715.06
2023-03-31T22:23:34.066Z,73721.16
2023-03-31T22:33:37.427Z,73698.91
2023-03-31T22:43:40.112Z,73702.94
2023-03-31T22:53:44.713Z,73686.75
2023-03-31T23:03:50.265Z,73599.78
2023-03-31T23:13:56.518Z,73638.22
2023-03-31T23:24:05.886Z,73662.47
2023-03-31T23:34:10.680Z,73662.47
2023-03-31T23:44:15.374Z,73666.53
2023-03-31T23:54:20.072Z,73658.44
